sensor_id;sensor_type;location;lat;lon;timestamp;temperature;humidity
59999;DHT22;45859;51.378;6.736;2023-04-25T00:01:17;7.00;99.90
59999;DHT22;45859;51.378;6.736;2023-04-25T00:03:43;6.70;99.90
59999;DHT22;45859;51.378;6.736;2023-04-25T00:06:08;6.80;99.90
59999;DHT22;45859;51.378;6.736;2023-04-25T00:08:34;6.80;99.90
59999;DHT22;45859;51.378;6.736;2023-04-25T00:11:00;6.80;99.90
59999;DHT22;45859;51.378;6.736;2023-04-25T00:13:26;8.00;99.90
59999;DHT22;45859;51.378;6.736;2023-04-25T00:18:31;6.40;99.90
59999;DHT22;45859;51.378;6.736;2023-04-25T00:20:58;7.20;99.90
59999;DHT22;45859;51.378;6.736;2023-04-25T00:23:24;7.10;99.90
59999;DHT22;45859;51.378;6.736;2023-04-25T00:25:50;7.00;99.90
59999;DHT22;45859;51.378;6.736;2023-04-25T00:28:16;7.60;99.90
59999;DHT22;45859;51.378;6.736;2023-04-25T00:30:42;7.00;99.90
59999;DHT22;45859;51.378;6.736;2023-04-25T00:33:08;8.40;99.90
59999;DHT22;45859;51.378;6.736;2023-04-25T00:35:35;7.30;99.90
59999;DHT22;45859;51.378;6.736;2023-04-25T00:38:01;7.30;99.90
59999;DHT22;45859;51.378;6.736;2023-04-25T00:40:27;7.20;99.90
59999;DHT22;45859;51.378;6.736;2023-04-25T00:42:53;6.40;99.90
59999;DHT22;45859;51.378;6.736;2023-04-25T00:45:19;6.70;99.90
59999;DHT22;45859;51.378;6.736;2023-04-25T00:47:45;7.20;99.90
59999;DHT22;45859;51.378;6.736;2023-04-25T00:50:13;6.40;99.90
59999;DHT22;45859;51.378;6.736;2023-04-25T00:52:43;8.40;99.90
59999;DHT22;45859;51.378;6.736;2023-04-25T00:55:10;8.10;99.90
59999;DHT22;45859;51.378;6.736;2023-04-25T00:57:36;7.20;99.90
59999;DHT22;45859;51.378;6.736;2023-04-25T01:00:04;7.00;99.90
59999;DHT22;45859;51.378;6.736;2023-04-25T01:02:32;7.20;99.90
59999;DHT22;45859;51.378;6.736;2023-04-25T01:04:58;7.10;99.90
59999;DHT22;45859;51.378;6.736;2023-04-25T01:07:24;7.10;99.90
59999;DHT22;45859;51.378;6.736;2023-04-25T01:09:52;7.20;99.90
59999;DHT22;45859;51.378;6.736;2023-04-25T01:12:18;6.60;99.90
59999;DHT22;45859;51.378;6.736;2023-04-25T01:14:43;7.30;99.90
59999;DHT22;45859;51.378;6.736;2023-04-25T01:17:10;7.10;99.90
59999;DHT22;45859;51.378;6.736;2023-04-25T01:19:36;7.20;99.90
59999;DHT22;45859;51.378;6.736;2023-04-25T01:22:01;7.20;99.90
59999;DHT22;45859;51.378;6.736;2023-04-25T01:24:27;8.10;99.90
59999;DHT22;45859;51.378;6.736;2023-04-25T01:26:54;7.10;99.90
59999;DHT22;45859;51.378;6.736;2023-04-25T01:29:22;7.50;99.90
59999;DHT22;45859;51.378;6.736;2023-04-25T01:31:48;6.70;99.90
59999;DHT22;45859;51.378;6.736;2023-04-25T01:34:14;7.60;99.90
59999;DHT22;45859;51.378;6.736;2023-04-25T01:36:40;6.60;99.90
59999;DHT22;45859;51.378;6.736;2023-04-25T01:39:06;5.30;99.90
59999;DHT22;45859;51.378;6.736;2023-04-25T01:41:33;7.30;99.90
59999;DHT22;45859;51.378;6.736;2023-04-25T01:44:00;7.60;99.90
59999;DHT22;45859;51.378;6.736;2023-04-25T01:48:52;7.20;99.90
59999;DHT22;45859;51.378;6.736;2023-04-25T01:51:18;6.40;99.90
59999;DHT22;45859;51.378;6.736;2023-04-25T01:53:43;7.00;99.90
59999;DHT22;45859;51.378;6.736;2023-04-25T01:56:09;5.80;99.90
59999;DHT22;45859;51.378;6.736;2023-04-25T01:58:35;6.00;99.90
59999;DHT22;45859;51.378;6.736;2023-04-25T02:01:01;6.00;99.90
59999;DHT22;45859;51.378;6.736;2023-04-25T02:03:26;7.50;99.90
59999;DHT22;45859;51.378;6.736;2023-04-25T02:05:52;7.30;99.90
59999;DHT22;45859;51.378;6.736;2023-04-25T02:08:18;7.10;99.90
59999;DHT22;45859;51.378;6.736;2023-04-25T02:10:44;7.20;99.90
59999;DHT22;45859;51.378;6.736;2023-04-25T02:13:09;6.50;99.90
59999;DHT22;45859;51.378;6.736;2023-04-25T02:15:35;7.10;99.90
59999;DHT22;45859;51.378;6.736;2023-04-25T02:20:29;7.90;99.90
59999;DHT22;45859;51.378;6.736;2023-04-25T02:22:55;6.90;99.90
59999;DHT22;45859;51.378;6.736;2023-04-25T02:25:22;7.90;99.90
59999;DHT22;45859;51.378;6.736;2023-04-25T02:27:48;7.10;99.90
59999;DHT22;45859;51.378;6.736;2023-04-25T02:32:40;6.90;99.90
59999;DHT22;45859;51.378;6.736;2023-04-25T02:35:06;6.70;99.90
59999;DHT22;45859;51.378;6.736;2023-04-25T02:37:37;6.90;99.90
59999;DHT22;45859;51.378;6.736;2023-04-25T02:40:03;6.80;99.90
59999;DHT22;45859;51.378;6.736;2023-04-25T02:42:30;8.00;99.90
59999;DHT22;45859;51.378;6.736;2023-04-25T02:44:56;5.30;99.90
59999;DHT22;45859;51.378;6.736;2023-04-25T02:47:21;6.90;99.90
59999;DHT22;45859;51.378;6.736;2023-04-25T02:49:47;6.90;99.90
59999;DHT22;45859;51.378;6.736;2023-04-25T02:52:13;7.20;99.90
59999;DHT22;45859;51.378;6.736;2023-04-25T02:54:40;5.70;99.90
59999;DHT22;45859;51.378;6.736;2023-04-25T02:57:06;6.80;99.90
59999;DHT22;45859;51.378;6.736;2023-04-25T03:01:58;6.70;99.90
59999;DHT22;45859;51.378;6.736;2023-04-25T03:06:50;6.60;99.90
59999;DHT22;45859;51.378;6.736;2023-04-25T03:09:16;6.70;99.90
59999;DHT22;45859;51.378;6.736;2023-04-25T03:11:43;6.60;99.90
59999;DHT22;45859;51.378;6.736;2023-04-25T03:14:09;6.70;99.90
59999;DHT22;45859;51.378;6.736;2023-04-25T03:16:35;6.70;99.90
59999;DHT22;45859;51.378;6.736;2023-04-25T03:19:01;6.60;99.90
59999;DHT22;45859;51.378;6.736;2023-04-25T03:21:27;6.70;99.90
59999;DHT22;45859;51.378;6.736;2023-04-25T03:26:19;6.40;99.90
59999;DHT22;45859;51.378;6.736;2023-04-25T03:31:11;6.60;99.90
59999;DHT22;45859;51.378;6.736;2023-04-25T03:33:36;6.40;99.90
59999;DHT22;45859;51.378;6.736;2023-04-25T03:36:02;6.40;99.90
59999;DHT22;45859;51.378;6.736;2023-04-25T03:38:28;7.00;99.90
59999;DHT22;45859;51.378;6.736;2023-04-25T03:40:54;6.30;99.90
59999;DHT22;45859;51.378;6.736;2023-04-25T03:43:21;6.50;99.90
59999;DHT22;45859;51.378;6.736;2023-04-25T03:50:39;6.80;99.90
59999;DHT22;45859;51.378;6.736;2023-04-25T03:53:05;6.40;99.90
59999;DHT22;45859;51.378;6.736;2023-04-25T03:55:30;6.30;99.90
59999;DHT22;45859;51.378;6.736;2023-04-25T03:57:57;7.20;99.90
59999;DHT22;45859;51.378;6.736;2023-04-25T04:02:49;6.30;99.90
59999;DHT22;45859;51.378;6.736;2023-04-25T04:05:15;6.00;99.90
59999;DHT22;45859;51.378;6.736;2023-04-25T04:07:41;6.60;99.90
59999;DHT22;45859;51.378;6.736;2023-04-25T04:10:09;6.30;99.90
59999;DHT22;45859;51.378;6.736;2023-04-25T04:12:35;6.30;99.90
59999;DHT22;45859;51.378;6.736;2023-04-25T04:15:01;6.30;99.90
59999;DHT22;45859;51.378;6.736;2023-04-25T04:27:12;6.30;99.90
59999;DHT22;45859;51.378;6.736;2023-04-25T04:29:38;5.60;99.90
59999;DHT22;45859;51.378;6.736;2023-04-25T04:32:04;5.90;99.90
59999;DHT22;45859;51.378;6.736;2023-04-25T04:34:30;5.80;99.90
59999;DHT22;45859;51.378;6.736;2023-04-25T04:36:56;5.20;99.90
59999;DHT22;45859;51.378;6.736;2023-04-25T04:39:22;4.70;99.90
59999;DHT22;45859;51.378;6.736;2023-04-25T04:41:48;6.80;99.90
59999;DHT22;45859;51.378;6.736;2023-04-25T04:44:14;5.90;99.90
59999;DHT22;45859;51.378;6.736;2023-04-25T04:46:40;5.80;99.90
59999;DHT22;45859;51.378;6.736;2023-04-25T04:49:11;6.70;99.90
59999;DHT22;45859;51.378;6.736;2023-04-25T04:51:38;5.90;99.90
59999;DHT22;45859;51.378;6.736;2023-04-25T04:54:04;6.00;99.90
59999;DHT22;45859;51.378;6.736;2023-04-25T04:56:30;5.20;99.90
59999;DHT22;45859;51.378;6.736;2023-04-25T04:58:58;5.80;99.90
59999;DHT22;45859;51.378;6.736;2023-04-25T05:01:24;6.30;99.90
59999;DHT22;45859;51.378;6.736;2023-04-25T05:03:50;6.00;99.90
59999;DHT22;45859;51.378;6.736;2023-04-25T05:06:18;5.90;99.90
59999;DHT22;45859;51.378;6.736;2023-04-25T05:08:44;5.90;99.90
59999;DHT22;45859;51.378;6.736;2023-04-25T05:11:10;6.10;99.90
59999;DHT22;45859;51.378;6.736;2023-04-25T05:13:36;6.10;99.90
59999;DHT22;45859;51.378;6.736;2023-04-25T05:16:02;5.70;99.90
59999;DHT22;45859;51.378;6.736;2023-04-25T05:18:28;5.00;99.90
59999;DHT22;45859;51.378;6.736;2023-04-25T05:20:54;6.20;99.90
59999;DHT22;45859;51.378;6.736;2023-04-25T05:23:19;6.40;99.90
59999;DHT22;45859;51.378;6.736;2023-04-25T05:25:45;6.60;99.90
59999;DHT22;45859;51.378;6.736;2023-04-25T05:28:12;6.90;99.90
59999;DHT22;45859;51.378;6.736;2023-04-25T05:30:38;6.60;99.90
59999;DHT22;45859;51.378;6.736;2023-04-25T05:35:30;7.40;99.90
59999;DHT22;45859;51.378;6.736;2023-04-25T05:37:56;6.50;99.90
59999;DHT22;45859;51.378;6.736;2023-04-25T05:40:22;7.10;99.90
59999;DHT22;45859;51.378;6.736;2023-04-25T05:42:48;7.30;99.90
59999;DHT22;45859;51.378;6.736;2023-04-25T05:45:13;7.20;99.90
59999;DHT22;45859;51.378;6.736;2023-04-25T05:47:39;7.50;99.90
59999;DHT22;45859;51.378;6.736;2023-04-25T05:50:05;7.70;99.90
59999;DHT22;45859;51.378;6.736;2023-04-25T05:52:31;7.90;99.90
59999;DHT22;45859;51.378;6.736;2023-04-25T05:54:57;7.40;99.90
59999;DHT22;45859;51.378;6.736;2023-04-25T05:57:27;8.30;99.90
59999;DHT22;45859;51.378;6.736;2023-04-25T05:59:53;7.30;99.90
59999;DHT22;45859;51.378;6.736;2023-04-25T06:02:20;6.10;99.90
59999;DHT22;45859;51.378;6.736;2023-04-25T06:04:48;7.80;99.90
59999;DHT22;45859;51.378;6.736;2023-04-25T06:07:14;7.90;99.90
59999;DHT22;45859;51.378;6.736;2023-04-25T06:09:40;7.50;99.90
59999;DHT22;45859;51.378;6.736;2023-04-25T06:12:06;7.70;99.90
59999;DHT22;45859;51.378;6.736;2023-04-25T06:14:33;7.80;99.90
59999;DHT22;45859;51.378;6.736;2023-04-25T06:16:58;9.00;99.90
59999;DHT22;45859;51.378;6.736;2023-04-25T06:19:24;8.20;99.90
59999;DHT22;45859;51.378;6.736;2023-04-25T06:21:50;8.60;99.90
59999;DHT22;45859;51.378;6.736;2023-04-25T06:24:15;10.00;99.90
59999;DHT22;45859;51.378;6.736;2023-04-25T06:26:41;9.50;99.90
59999;DHT22;45859;51.378;6.736;2023-04-25T06:29:07;9.60;99.90
59999;DHT22;45859;51.378;6.736;2023-04-25T06:31:32;9.60;99.90
59999;DHT22;45859;51.378;6.736;2023-04-25T06:33:59;9.80;99.90
59999;DHT22;45859;51.378;6.736;2023-04-25T06:36:24;10.70;99.90
59999;DHT22;45859;51.378;6.736;2023-04-25T06:38:51;11.60;99.90
59999;DHT22;45859;51.378;6.736;2023-04-25T06:41:20;12.20;99.90
59999;DHT22;45859;51.378;6.736;2023-04-25T06:43:46;12.80;99.90
59999;DHT22;45859;51.378;6.736;2023-04-25T06:46:12;13.30;99.90
59999;DHT22;45859;51.378;6.736;2023-04-25T06:48:38;13.70;99.90
59999;DHT22;45859;51.378;6.736;2023-04-25T06:51:04;14.00;99.90
59999;DHT22;45859;51.378;6.736;2023-04-25T06:53:29;14.20;99.90
59999;DHT22;45859;51.378;6.736;2023-04-25T06:55:55;13.90;99.90
59999;DHT22;45859;51.378;6.736;2023-04-25T06:58:23;13.00;99.90
59999;DHT22;45859;51.378;6.736;2023-04-25T07:00:49;12.40;99.90
59999;DHT22;45859;51.378;6.736;2023-04-25T07:03:17;12.60;99.90
59999;DHT22;45859;51.378;6.736;2023-04-25T07:05:50;13.00;99.90
59999;DHT22;45859;51.378;6.736;2023-04-25T07:08:17;13.30;99.90
59999;DHT22;45859;51.378;6.736;2023-04-25T07:10:45;13.80;99.90
59999;DHT22;45859;51.378;6.736;2023-04-25T07:13:11;14.50;99.90
59999;DHT22;45859;51.378;6.736;2023-04-25T07:15:41;15.10;99.90
59999;DHT22;45859;51.378;6.736;2023-04-25T07:18:07;15.80;99.90
59999;DHT22;45859;51.378;6.736;2023-04-25T07:20:33;16.00;99.90
59999;DHT22;45859;51.378;6.736;2023-04-25T07:22:59;16.10;99.90
59999;DHT22;45859;51.378;6.736;2023-04-25T07:25:28;16.90;99.90
59999;DHT22;45859;51.378;6.736;2023-04-25T07:28:01;17.50;99.90
59999;DHT22;45859;51.378;6.736;2023-04-25T07:30:28;17.70;99.90
59999;DHT22;45859;51.378;6.736;2023-04-25T07:32:54;17.80;99.90
59999;DHT22;45859;51.378;6.736;2023-04-25T07:35:20;18.10;99.90
59999;DHT22;45859;51.378;6.736;2023-04-25T07:37:50;17.90;99.90
59999;DHT22;45859;51.378;6.736;2023-04-25T07:40:18;17.40;99.90
59999;DHT22;45859;51.378;6.736;2023-04-25T07:42:47;17.90;99.90
59999;DHT22;45859;51.378;6.736;2023-04-25T07:45:16;17.30;99.90
59999;DHT22;45859;51.378;6.736;2023-04-25T07:47:42;16.30;99.90
59999;DHT22;45859;51.378;6.736;2023-04-25T07:50:11;15.20;99.90
59999;DHT22;45859;51.378;6.736;2023-04-25T07:52:40;15.30;99.90
59999;DHT22;45859;51.378;6.736;2023-04-25T07:55:07;14.90;99.90
59999;DHT22;45859;51.378;6.736;2023-04-25T07:57:39;14.70;99.90
59999;DHT22;45859;51.378;6.736;2023-04-25T08:00:06;13.60;99.90
59999;DHT22;45859;51.378;6.736;2023-04-25T08:02:35;13.10;99.90
59999;DHT22;45859;51.378;6.736;2023-04-25T08:05:03;12.70;99.90
59999;DHT22;45859;51.378;6.736;2023-04-25T08:07:29;12.50;99.90
59999;DHT22;45859;51.378;6.736;2023-04-25T08:09:59;12.50;99.90
59999;DHT22;45859;51.378;6.736;2023-04-25T08:12:28;11.80;99.90
59999;DHT22;45859;51.378;6.736;2023-04-25T08:14:57;10.80;99.90
59999;DHT22;45859;51.378;6.736;2023-04-25T08:17:30;11.00;99.90
59999;DHT22;45859;51.378;6.736;2023-04-25T08:19:56;10.70;99.90
59999;DHT22;45859;51.378;6.736;2023-04-25T08:22:26;10.50;99.90
59999;DHT22;45859;51.378;6.736;2023-04-25T08:24:57;10.80;99.90
59999;DHT22;45859;51.378;6.736;2023-04-25T08:27:26;12.20;99.90
59999;DHT22;45859;51.378;6.736;2023-04-25T08:29:52;13.90;99.90
59999;DHT22;45859;51.378;6.736;2023-04-25T08:32:19;16.50;99.90
59999;DHT22;45859;51.378;6.736;2023-04-25T08:34:46;17.90;99.90
59999;DHT22;45859;51.378;6.736;2023-04-25T08:37:14;18.40;99.90
59999;DHT22;45859;51.378;6.736;2023-04-25T08:39:44;17.40;99.90
59999;DHT22;45859;51.378;6.736;2023-04-25T08:42:12;16.60;99.90
59999;DHT22;45859;51.378;6.736;2023-04-25T08:44:48;16.20;99.90
59999;DHT22;45859;51.378;6.736;2023-04-25T08:47:19;15.40;99.90
59999;DHT22;45859;51.378;6.736;2023-04-25T08:49:47;14.90;99.90
59999;DHT22;45859;51.378;6.736;2023-04-25T08:52:22;14.10;99.90
59999;DHT22;45859;51.378;6.736;2023-04-25T08:54:51;13.60;99.90
59999;DHT22;45859;51.378;6.736;2023-04-25T08:57:18;13.10;99.90
59999;DHT22;45859;51.378;6.736;2023-04-25T08:59:47;12.70;99.90
59999;DHT22;45859;51.378;6.736;2023-04-25T09:02:17;12.40;99.90
59999;DHT22;45859;51.378;6.736;2023-04-25T09:04:45;12.20;99.90
59999;DHT22;45859;51.378;6.736;2023-04-25T09:09:39;11.70;99.90
59999;DHT22;45859;51.378;6.736;2023-04-25T09:12:05;11.70;99.90
59999;DHT22;45859;51.378;6.736;2023-04-25T09:14:31;11.60;99.90
59999;DHT22;45859;51.378;6.736;2023-04-25T09:19:27;12.60;99.90
59999;DHT22;45859;51.378;6.736;2023-04-25T09:22:00;13.40;99.90
59999;DHT22;45859;51.378;6.736;2023-04-25T09:24:37;14.30;99.90
59999;DHT22;45859;51.378;6.736;2023-04-25T09:27:04;15.10;99.90
59999;DHT22;45859;51.378;6.736;2023-04-25T09:29:31;15.60;99.90
59999;DHT22;45859;51.378;6.736;2023-04-25T09:34:44;15.40;99.90
59999;DHT22;45859;51.378;6.736;2023-04-25T09:37:11;15.00;99.90
59999;DHT22;45859;51.378;6.736;2023-04-25T09:39:37;14.70;99.90
59999;DHT22;45859;51.378;6.736;2023-04-25T09:42:04;14.40;99.90
59999;DHT22;45859;51.378;6.736;2023-04-25T09:44:30;14.20;99.90
59999;DHT22;45859;51.378;6.736;2023-04-25T09:46:57;14.00;99.90
59999;DHT22;45859;51.378;6.736;2023-04-25T09:49:23;13.60;99.90
59999;DHT22;45859;51.378;6.736;2023-04-25T09:51:58;13.40;99.90
59999;DHT22;45859;51.378;6.736;2023-04-25T09:54:25;13.30;99.90
59999;DHT22;45859;51.378;6.736;2023-04-25T09:56:52;13.00;99.90
59999;DHT22;45859;51.378;6.736;2023-04-25T09:59:22;13.10;99.90
59999;DHT22;45859;51.378;6.736;2023-04-25T10:01:51;13.00;99.90
59999;DHT22;45859;51.378;6.736;2023-04-25T10:04:24;13.30;99.90
59999;DHT22;45859;51.378;6.736;2023-04-25T10:06:53;13.20;99.90
59999;DHT22;45859;51.378;6.736;2023-04-25T10:09:20;12.90;99.90
59999;DHT22;45859;51.378;6.736;2023-04-25T10:11:47;12.80;99.90
59999;DHT22;45859;51.378;6.736;2023-04-25T10:14:16;12.90;99.90
59999;DHT22;45859;51.378;6.736;2023-04-25T10:16:42;12.60;99.90
59999;DHT22;45859;51.378;6.736;2023-04-25T10:19:09;12.70;99.90
59999;DHT22;45859;51.378;6.736;2023-04-25T10:21:40;13.20;99.90
59999;DHT22;45859;51.378;6.736;2023-04-25T10:24:11;13.40;99.90
59999;DHT22;45859;51.378;6.736;2023-04-25T10:26:37;13.60;99.90
59999;DHT22;45859;51.378;6.736;2023-04-25T10:29:04;13.70;99.90
59999;DHT22;45859;51.378;6.736;2023-04-25T10:31:31;13.50;99.90
59999;DHT22;45859;51.378;6.736;2023-04-25T10:33:57;13.20;99.90
59999;DHT22;45859;51.378;6.736;2023-04-25T10:36:23;12.80;99.90
59999;DHT22;45859;51.378;6.736;2023-04-25T10:38:50;12.50;99.90
59999;DHT22;45859;51.378;6.736;2023-04-25T10:41:20;12.30;99.90
59999;DHT22;45859;51.378;6.736;2023-04-25T10:43:47;12.30;99.90
59999;DHT22;45859;51.378;6.736;2023-04-25T10:46:23;12.20;99.90
59999;DHT22;45859;51.378;6.736;2023-04-25T10:51:25;12.60;99.90
59999;DHT22;45859;51.378;6.736;2023-04-25T11:01:42;13.40;99.90
59999;DHT22;45859;51.378;6.736;2023-04-25T11:04:31;13.50;99.90
59999;DHT22;45859;51.378;6.736;2023-04-25T11:09:49;12.60;99.90
59999;DHT22;45859;51.378;6.736;2023-04-25T11:12:15;12.20;99.90
59999;DHT22;45859;51.378;6.736;2023-04-25T11:14:42;11.90;99.90
59999;DHT22;45859;51.378;6.736;2023-04-25T11:17:08;11.60;99.90
59999;DHT22;45859;51.378;6.736;2023-04-25T11:19:34;10.70;99.90
59999;DHT22;45859;51.378;6.736;2023-04-25T11:22:01;10.60;99.90
59999;DHT22;45859;51.378;6.736;2023-04-25T11:26:53;10.40;99.90
59999;DHT22;45859;51.378;6.736;2023-04-25T11:29:22;10.30;99.90
59999;DHT22;45859;51.378;6.736;2023-04-25T11:31:48;10.50;99.90
59999;DHT22;45859;51.378;6.736;2023-04-25T11:34:20;11.10;99.90
59999;DHT22;45859;51.378;6.736;2023-04-25T11:36:46;11.00;99.90
59999;DHT22;45859;51.378;6.736;2023-04-25T11:39:12;11.00;99.90
59999;DHT22;45859;51.378;6.736;2023-04-25T11:41:38;10.90;99.90
59999;DHT22;45859;51.378;6.736;2023-04-25T11:44:05;10.70;99.90
59999;DHT22;45859;51.378;6.736;2023-04-25T11:46:34;10.70;99.90
59999;DHT22;45859;51.378;6.736;2023-04-25T11:49:00;10.40;99.90
59999;DHT22;45859;51.378;6.736;2023-04-25T11:51:26;10.10;99.90
59999;DHT22;45859;51.378;6.736;2023-04-25T11:53:52;9.90;99.90
59999;DHT22;45859;51.378;6.736;2023-04-25T11:56:18;9.70;99.90
59999;DHT22;45859;51.378;6.736;2023-04-25T11:59:01;9.60;99.90
59999;DHT22;45859;51.378;6.736;2023-04-25T12:01:30;9.40;99.90
59999;DHT22;45859;51.378;6.736;2023-04-25T12:03:57;9.10;99.90
59999;DHT22;45859;51.378;6.736;2023-04-25T12:06:27;9.10;99.90
59999;DHT22;45859;51.378;6.736;2023-04-25T12:09:04;8.90;99.90
59999;DHT22;45859;51.378;6.736;2023-04-25T12:11:40;8.70;99.90
59999;DHT22;45859;51.378;6.736;2023-04-25T12:14:06;8.60;99.90
59999;DHT22;45859;51.378;6.736;2023-04-25T12:16:45;8.80;99.90
59999;DHT22;45859;51.378;6.736;2023-04-25T12:19:15;8.80;99.90
59999;DHT22;45859;51.378;6.736;2023-04-25T12:21:41;8.80;99.90
59999;DHT22;45859;51.378;6.736;2023-04-25T12:24:26;8.90;99.90
59999;DHT22;45859;51.378;6.736;2023-04-25T12:27:04;9.10;99.90
59999;DHT22;45859;51.378;6.736;2023-04-25T12:29:32;9.40;99.90
59999;DHT22;45859;51.378;6.736;2023-04-25T12:31:58;9.80;99.90
59999;DHT22;45859;51.378;6.736;2023-04-25T12:34:25;9.70;99.90
59999;DHT22;45859;51.378;6.736;2023-04-25T12:36:52;9.90;99.90
59999;DHT22;45859;51.378;6.736;2023-04-25T12:39:20;10.00;99.90
59999;DHT22;45859;51.378;6.736;2023-04-25T12:41:48;10.30;99.90
59999;DHT22;45859;51.378;6.736;2023-04-25T12:44:13;10.20;99.90
59999;DHT22;45859;51.378;6.736;2023-04-25T12:46:39;10.40;99.90
59999;DHT22;45859;51.378;6.736;2023-04-25T12:49:06;10.50;99.90
59999;DHT22;45859;51.378;6.736;2023-04-25T12:51:34;10.70;99.90
59999;DHT22;45859;51.378;6.736;2023-04-25T12:54:00;10.70;99.90
59999;DHT22;45859;51.378;6.736;2023-04-25T12:56:27;10.80;99.90
59999;DHT22;45859;51.378;6.736;2023-04-25T12:58:53;10.70;99.90
59999;DHT22;45859;51.378;6.736;2023-04-25T13:01:20;10.70;99.90
59999;DHT22;45859;51.378;6.736;2023-04-25T13:03:46;10.80;99.90
59999;DHT22;45859;51.378;6.736;2023-04-25T13:06:13;10.90;99.90
59999;DHT22;45859;51.378;6.736;2023-04-25T13:08:39;11.00;99.90
59999;DHT22;45859;51.378;6.736;2023-04-25T13:11:06;11.20;99.90
59999;DHT22;45859;51.378;6.736;2023-04-25T13:13:31;11.40;99.90
59999;DHT22;45859;51.378;6.736;2023-04-25T13:15:58;11.50;99.90
59999;DHT22;45859;51.378;6.736;2023-04-25T13:18:24;11.50;99.90
59999;DHT22;45859;51.378;6.736;2023-04-25T13:20:53;11.00;99.90
59999;DHT22;45859;51.378;6.736;2023-04-25T13:23:19;10.70;99.90
59999;DHT22;45859;51.378;6.736;2023-04-25T13:25:46;10.10;99.90
59999;DHT22;45859;51.378;6.736;2023-04-25T13:28:12;10.10;99.90
59999;DHT22;45859;51.378;6.736;2023-04-25T13:30:38;10.00;99.90
59999;DHT22;45859;51.378;6.736;2023-04-25T13:33:03;9.80;99.90
59999;DHT22;45859;51.378;6.736;2023-04-25T13:35:30;9.80;99.90
59999;DHT22;45859;51.378;6.736;2023-04-25T13:37:56;9.70;99.90
59999;DHT22;45859;51.378;6.736;2023-04-25T13:40:22;9.60;99.90
59999;DHT22;45859;51.378;6.736;2023-04-25T13:42:48;9.70;99.90
59999;DHT22;45859;51.378;6.736;2023-04-25T13:45:13;9.60;99.90
59999;DHT22;45859;51.378;6.736;2023-04-25T13:47:40;9.60;99.90
59999;DHT22;45859;51.378;6.736;2023-04-25T13:50:06;9.70;99.90
59999;DHT22;45859;51.378;6.736;2023-04-25T13:52:32;9.80;99.90
59999;DHT22;45859;51.378;6.736;2023-04-25T13:54:58;10.00;99.90
59999;DHT22;45859;51.378;6.736;2023-04-25T13:57:25;10.20;99.90
59999;DHT22;45859;51.378;6.736;2023-04-25T13:59:51;10.30;99.90
59999;DHT22;45859;51.378;6.736;2023-04-25T14:02:17;10.40;99.90
59999;DHT22;45859;51.378;6.736;2023-04-25T14:04:43;10.60;99.90
59999;DHT22;45859;51.378;6.736;2023-04-25T14:07:09;10.70;99.90
59999;DHT22;45859;51.378;6.736;2023-04-25T14:09:36;10.80;99.90
59999;DHT22;45859;51.378;6.736;2023-04-25T14:12:02;10.90;99.90
59999;DHT22;45859;51.378;6.736;2023-04-25T14:14:27;11.00;99.90
59999;DHT22;45859;51.378;6.736;2023-04-25T14:16:54;11.00;99.90
59999;DHT22;45859;51.378;6.736;2023-04-25T14:19:22;11.10;99.90
59999;DHT22;45859;51.378;6.736;2023-04-25T14:21:49;11.10;99.90
59999;DHT22;45859;51.378;6.736;2023-04-25T14:24:15;11.20;99.90
59999;DHT22;45859;51.378;6.736;2023-04-25T14:26:41;11.30;99.90
59999;DHT22;45859;51.378;6.736;2023-04-25T14:29:08;11.60;99.90
59999;DHT22;45859;51.378;6.736;2023-04-25T14:31:35;11.80;99.90
59999;DHT22;45859;51.378;6.736;2023-04-25T14:34:01;11.80;99.90
59999;DHT22;45859;51.378;6.736;2023-04-25T14:36:31;11.90;99.90
59999;DHT22;45859;51.378;6.736;2023-04-25T14:38:57;11.90;99.90
59999;DHT22;45859;51.378;6.736;2023-04-25T14:41:24;11.80;99.90
59999;DHT22;45859;51.378;6.736;2023-04-25T14:43:50;11.60;99.90
59999;DHT22;45859;51.378;6.736;2023-04-25T14:46:16;11.40;99.90
59999;DHT22;45859;51.378;6.736;2023-04-25T14:48:42;11.20;99.90
59999;DHT22;45859;51.378;6.736;2023-04-25T14:51:08;11.10;99.90
59999;DHT22;45859;51.378;6.736;2023-04-25T14:53:33;10.90;99.90
59999;DHT22;45859;51.378;6.736;2023-04-25T14:55:59;10.80;99.90
59999;DHT22;45859;51.378;6.736;2023-04-25T14:58:25;10.70;99.90
59999;DHT22;45859;51.378;6.736;2023-04-25T15:00:51;10.60;99.90
59999;DHT22;45859;51.378;6.736;2023-04-25T15:03:17;10.50;99.90
59999;DHT22;45859;51.378;6.736;2023-04-25T15:05:43;10.50;99.90
59999;DHT22;45859;51.378;6.736;2023-04-25T15:08:09;10.60;99.90
59999;DHT22;45859;51.378;6.736;2023-04-25T15:10:36;10.60;99.90
59999;DHT22;45859;51.378;6.736;2023-04-25T15:13:02;10.60;99.90
59999;DHT22;45859;51.378;6.736;2023-04-25T15:15:28;10.50;99.90
59999;DHT22;45859;51.378;6.736;2023-04-25T15:17:55;11.00;99.90
59999;DHT22;45859;51.378;6.736;2023-04-25T15:20:21;10.90;99.90
59999;DHT22;45859;51.378;6.736;2023-04-25T15:22:47;11.10;99.90
59999;DHT22;45859;51.378;6.736;2023-04-25T15:25:16;11.10;99.90
59999;DHT22;45859;51.378;6.736;2023-04-25T15:27:45;11.10;99.90
59999;DHT22;45859;51.378;6.736;2023-04-25T15:30:14;11.10;99.90
59999;DHT22;45859;51.378;6.736;2023-04-25T15:32:49;11.10;99.90
59999;DHT22;45859;51.378;6.736;2023-04-25T15:35:15;11.00;99.90
59999;DHT22;45859;51.378;6.736;2023-04-25T15:37:41;10.90;99.90
59999;DHT22;45859;51.378;6.736;2023-04-25T15:40:14;11.00;99.90
59999;DHT22;45859;51.378;6.736;2023-04-25T15:42:45;11.00;99.90
59999;DHT22;45859;51.378;6.736;2023-04-25T15:45:23;11.00;99.90
59999;DHT22;45859;51.378;6.736;2023-04-25T15:47:50;11.00;99.90
59999;DHT22;45859;51.378;6.736;2023-04-25T15:50:20;11.00;99.90
59999;DHT22;45859;51.378;6.736;2023-04-25T15:52:48;11.20;99.90
59999;DHT22;45859;51.378;6.736;2023-04-25T15:55:14;10.60;99.90
59999;DHT22;45859;51.378;6.736;2023-04-25T15:57:41;10.50;99.90
59999;DHT22;45859;51.378;6.736;2023-04-25T16:00:08;10.30;99.90
59999;DHT22;45859;51.378;6.736;2023-04-25T16:02:43;10.50;99.90
59999;DHT22;45859;51.378;6.736;2023-04-25T16:05:09;10.60;99.90
59999;DHT22;45859;51.378;6.736;2023-04-25T16:07:40;10.80;99.90
59999;DHT22;45859;51.378;6.736;2023-04-25T16:10:07;10.70;99.90
59999;DHT22;45859;51.378;6.736;2023-04-25T16:12:33;10.90;99.90
59999;DHT22;45859;51.378;6.736;2023-04-25T16:14:59;11.00;99.90
59999;DHT22;45859;51.378;6.736;2023-04-25T16:17:25;11.60;99.90
59999;DHT22;45859;51.378;6.736;2023-04-25T16:19:50;10.90;99.90
59999;DHT22;45859;51.378;6.736;2023-04-25T16:22:16;11.40;99.90
59999;DHT22;45859;51.378;6.736;2023-04-25T16:24:43;10.80;99.90
59999;DHT22;45859;51.378;6.736;2023-04-25T16:27:09;10.70;99.90
59999;DHT22;45859;51.378;6.736;2023-04-25T16:29:35;10.80;99.90
59999;DHT22;45859;51.378;6.736;2023-04-25T16:32:00;10.50;99.90
59999;DHT22;45859;51.378;6.736;2023-04-25T16:34:26;10.70;99.90
59999;DHT22;45859;51.378;6.736;2023-04-25T16:36:55;10.60;99.90
59999;DHT22;45859;51.378;6.736;2023-04-25T16:39:21;10.70;99.90